createdAt,value
2022-08-11T00:02:19.244Z,22.70
2022-08-11T00:07:18.068Z,22.60
2022-08-11T00:12:17.801Z,22.50
2022-08-11T00:17:17.176Z,22.40
2022-08-11T00:22:16.199Z,22.30
2022-08-11T00:27:15.162Z,22.20
2022-08-11T00:32:14.327Z,22.20
2022-08-11T00:37:13.415Z,22.00
2022-08-11T00:42:12.451Z,21.90
2022-08-11T00:47:11.379Z,21.80
2022-08-11T00:52:10.375Z,21.80
2022-08-11T00:57:09.385Z,21.60
2022-08-11T01:02:10.230Z,21.60
2022-08-11T01:07:09.350Z,21.50
2022-08-11T01:12:08.261Z,21.40
2022-08-11T01:17:08.270Z,21.40
2022-08-11T01:22:09.431Z,21.40
2022-08-11T01:27:18.804Z,21.40
2022-08-11T01:32:09.410Z,21.40
2022-08-11T01:37:08.412Z,21.40
2022-08-11T01:42:25.519Z,21.50
2022-08-11T01:47:52.625Z,21.50
2022-08-11T01:52:44.822Z,21.60
2022-08-11T01:57:44.491Z,21.60
2022-08-11T02:02:47.187Z,21.70
2022-08-11T02:07:46.320Z,21.80
2022-08-11T02:12:52.127Z,21.90
2022-08-11T02:17:49.479Z,22.10
2022-08-11T02:23:08.442Z,22.20
2022-08-11T02:28:08.422Z,22.30
2022-08-11T02:33:27.419Z,22.40
2022-08-11T02:38:26.469Z,22.40
2022-08-11T02:43:25.295Z,22.50
2022-08-11T02:48:42.473Z,22.50
2022-08-11T02:53:41.322Z,22.50
2022-08-11T02:58:40.446Z,22.50
2022-08-11T03:03:40.377Z,22.40
2022-08-11T03:08:39.384Z,22.40
2022-08-11T03:13:56.560Z,22.20
2022-08-11T03:18:57.538Z,22.20
2022-08-11T03:23:56.483Z,22.20
2022-08-11T03:28:55.514Z,22.10
2022-08-11T03:34:06.828Z,22.00
2022-08-11T03:39:04.783Z,21.90
2022-08-11T03:44:04.071Z,21.70
2022-08-11T03:49:03.441Z,21.50
2022-08-11T03:54:04.487Z,21.30
2022-08-11T03:59:03.329Z,21.20
2022-08-11T04:04:02.519Z,21.00
2022-08-11T04:09:01.578Z,20.80
2022-08-11T04:14:02.979Z,20.70
2022-08-11T04:19:02.618Z,20.50
2022-08-11T04:24:36.727Z,20.40
2022-08-11T04:29:09.520Z,20.30
2022-08-11T04:34:07.503Z,20.20
2022-08-11T04:39:06.434Z,20.10
2022-08-11T04:44:06.777Z,20.10
2022-08-11T04:49:33.619Z,20.10
2022-08-11T04:54:50.743Z,20.10
2022-08-11T05:00:07.668Z,20.10
2022-08-11T05:05:24.513Z,20.30
2022-08-11T05:10:23.454Z,20.80
2022-08-11T05:15:42.737Z,21.30
2022-08-11T05:21:04.339Z,21.70
2022-08-11T05:26:47.718Z,22.10
2022-08-11T05:31:37.422Z,22.10
2022-08-11T05:36:36.526Z,21.90
2022-08-11T05:41:53.639Z,21.70
2022-08-11T05:47:10.791Z,21.50
2022-08-11T05:52:31.903Z,21.40
2022-08-11T05:57:50.041Z,21.50
2022-08-11T06:02:31.640Z,21.50
2022-08-11T06:07:30.519Z,21.50
2022-08-11T06:12:32.016Z,21.60
2022-08-11T06:17:38.486Z,21.70
2022-08-11T06:22:32.605Z,21.90
2022-08-11T06:27:31.574Z,22.00
2022-08-11T06:32:30.596Z,22.20
2022-08-11T06:37:32.165Z,22.40
2022-08-11T06:42:32.062Z,22.60
2022-08-11T06:47:31.689Z,22.90
2022-08-11T06:52:34.306Z,23.10
2022-08-11T06:57:49.556Z,23.40
2022-08-11T07:02:48.613Z,23.70
2022-08-11T07:08:33.192Z,24.10
2022-08-11T07:13:45.128Z,24.30
2022-08-11T07:18:43.701Z,24.70
2022-08-11T07:24:00.673Z,25.00
2022-08-11T07:28:59.482Z,25.30
2022-08-11T07:34:08.017Z,25.50
2022-08-11T07:38:59.531Z,25.60
2022-08-11T07:44:01.818Z,25.80
2022-08-11T07:49:18.596Z,26.00
2022-08-11T07:54:17.724Z,26.30
2022-08-11T07:59:59.912Z,26.50
2022-08-11T08:04:55.646Z,26.70
2022-08-11T08:10:14.277Z,27.00
2022-08-11T08:15:31.875Z,27.20
2022-08-11T08:20:30.644Z,27.40
2022-08-11T08:25:29.444Z,27.50
2022-08-11T08:30:46.660Z,27.60
2022-08-11T08:35:53.988Z,27.90
2022-08-11T08:40:48.132Z,28.10
2022-08-11T08:45:47.508Z,28.20
2022-08-11T08:51:04.734Z,28.40
2022-08-11T08:56:03.561Z,28.60
2022-08-11T09:01:02.809Z,28.90
2022-08-11T09:06:01.491Z,29.00
2022-08-11T09:11:18.549Z,29.20
2022-08-11T09:16:17.626Z,29.40
2022-08-11T09:21:34.202Z,29.60
2022-08-11T09:26:35.672Z,29.70
2022-08-11T09:31:39.817Z,30.00
2022-08-11T09:36:53.952Z,30.10
2022-08-11T09:42:01.729Z,30.20
2022-08-11T09:46:59.356Z,30.50
2022-08-11T09:52:04.882Z,30.50
2022-08-11T09:57:17.817Z,30.70
2022-08-11T10:02:18.090Z,30.90
2022-08-11T10:07:17.787Z,31.10
2022-08-11T10:12:16.616Z,31.20
2022-08-11T10:17:15.797Z,31.40
2022-08-11T10:22:33.148Z,31.50
2022-08-11T10:28:16.984Z,31.60
2022-08-11T10:32:58.716Z,31.70
2022-08-11T10:38:15.640Z,31.80
2022-08-11T10:43:07.059Z,32.00
2022-08-11T10:48:05.772Z,32.10
2022-08-11T10:53:22.861Z,32.20
2022-08-11T10:58:39.871Z,32.20
2022-08-11T11:03:38.588Z,32.30
2022-08-11T11:08:52.919Z,32.40
2022-08-11T11:14:09.981Z,32.40
2022-08-11T11:19:08.667Z,32.40
2022-08-11T11:24:09.967Z,32.50
2022-08-11T11:29:08.733Z,32.60
2022-08-11T11:34:12.833Z,32.60
2022-08-11T11:39:08.825Z,32.60
2022-08-11T11:44:07.678Z,32.80
2022-08-11T11:49:15.821Z,32.90
2022-08-11T11:54:10.673Z,33.00
2022-08-11T11:59:28.815Z,32.90
2022-08-11T12:04:27.802Z,33.00
2022-08-11T12:09:26.890Z,33.10
2022-08-11T12:14:27.542Z,33.10
2022-08-11T12:19:28.163Z,33.10
2022-08-11T12:24:45.159Z,33.10
2022-08-11T12:29:44.877Z,33.10
2022-08-11T12:34:43.679Z,33.30
2022-08-11T12:40:15.623Z,33.30
2022-08-11T12:45:22.272Z,33.30
2022-08-11T12:50:39.049Z,33.30
2022-08-11T12:56:07.550Z,33.50
2022-08-11T13:01:16.038Z,33.50
2022-08-11T13:06:14.844Z,33.60
2022-08-11T13:11:56.428Z,33.80
2022-08-11T13:16:34.607Z,33.90
2022-08-11T13:21:33.666Z,34.00
2022-08-11T13:26:43.313Z,34.00
2022-08-11T13:31:33.735Z,34.00
2022-08-11T13:36:32.743Z,34.10
2022-08-11T13:41:38.823Z,34.20
2022-08-11T13:46:37.771Z,34.10
2022-08-11T13:51:39.707Z,34.20
2022-08-11T13:56:39.558Z,34.20
2022-08-11T14:02:20.677Z,34.00
2022-08-11T14:06:40.782Z,34.00
2022-08-11T14:12:23.070Z,33.80
2022-08-11T14:16:59.866Z,33.70
2022-08-11T14:22:08.471Z,33.60
2022-08-11T14:27:07.954Z,33.80
2022-08-11T14:32:08.845Z,33.80
2022-08-11T14:37:07.790Z,33.90
2022-08-11T14:42:24.975Z,33.90
2022-08-11T14:47:25.623Z,33.80
2022-08-11T14:52:24.883Z,33.80
2022-08-11T14:57:55.027Z,33.80
2022-08-11T15:02:42.847Z,33.80
2022-08-11T15:07:42.098Z,33.80
2022-08-11T15:12:41.922Z,33.80
2022-08-11T15:17:43.769Z,33.80
2022-08-11T15:23:00.099Z,33.70
2022-08-11T15:28:17.072Z,33.60
2022-08-11T15:33:33.778Z,33.60
2022-08-11T15:38:34.886Z,33.60
2022-08-11T15:43:51.867Z,33.50
2022-08-11T15:48:50.927Z,33.50
2022-08-11T15:53:56.222Z,33.40
2022-08-11T15:59:35.082Z,33.30
2022-08-11T16:04:13.412Z,33.10
2022-08-11T16:09:18.532Z,33.10
2022-08-11T16:14:32.114Z,33.10
2022-08-11T16:19:33.131Z,33.70
2022-08-11T16:27:02.411Z,33.90
2022-08-11T16:29:33.286Z,33.60
2022-08-11T16:34:50.109Z,33.40
2022-08-11T16:39:51.188Z,33.30
2022-08-11T16:45:08.084Z,33.00
2022-08-11T16:50:07.096Z,32.80
2022-08-11T16:55:05.900Z,32.60
2022-08-11T17:00:05.861Z,32.50
2022-08-11T17:05:23.116Z,33.10
2022-08-11T17:10:53.415Z,32.70
2022-08-11T17:15:58.940Z,32.30
2022-08-11T17:20:58.076Z,32.00
2022-08-11T17:25:59.217Z,31.80
2022-08-11T17:31:30.656Z,31.60
2022-08-11T17:36:30.196Z,31.40
2022-08-11T17:41:46.960Z,31.30
2022-08-11T17:47:06.386Z,31.10
2022-08-11T17:52:23.096Z,31.00
2022-08-11T17:57:44.260Z,30.90
2022-08-11T18:02:58.884Z,30.70
2022-08-11T18:08:16.107Z,30.50
2022-08-11T18:13:33.127Z,30.30
2022-08-11T18:18:50.165Z,30.20
2022-08-11T18:24:07.219Z,30.00
2022-08-11T18:29:24.129Z,29.90
2022-08-11T18:34:41.368Z,29.70
2022-08-11T18:40:00.197Z,29.50
2022-08-11T18:45:17.364Z,29.30
2022-08-11T18:50:39.648Z,29.20
2022-08-11T18:55:53.086Z,29.00
2022-08-11T19:01:10.333Z,28.80
2022-08-11T19:06:39.348Z,28.60
2022-08-11T19:11:46.226Z,28.40
2022-08-11T19:17:03.207Z,28.30
2022-08-11T19:22:20.239Z,28.10
2022-08-11T19:27:37.216Z,27.90
2022-08-11T19:32:54.221Z,27.70
2022-08-11T19:38:11.521Z,27.60
2022-08-11T19:43:28.055Z,27.50
2022-08-11T19:48:45.140Z,27.40
2022-08-11T19:54:02.160Z,27.30
2022-08-11T19:59:19.245Z,27.20
2022-08-11T20:04:36.401Z,27.10
2022-08-11T20:10:04.974Z,27.00
2022-08-11T20:15:12.205Z,26.90
2022-08-11T20:20:29.146Z,26.80
2022-08-11T20:25:46.192Z,26.80
2022-08-11T20:31:03.328Z,26.70
2022-08-11T20:36:20.444Z,26.70
2022-08-11T20:41:58.411Z,26.60
2022-08-11T20:46:59.331Z,26.50
2022-08-11T20:52:16.308Z,26.50
2022-08-11T20:58:01.436Z,26.40
2022-08-11T21:02:54.220Z,26.30
2022-08-11T21:08:13.187Z,26.30
2022-08-11T21:13:30.085Z,26.20
2022-08-11T21:18:49.385Z,26.20
2022-08-11T21:24:06.317Z,26.10
2022-08-11T21:29:23.464Z,26.10
2022-08-11T21:34:40.308Z,26.00
2022-08-11T21:39:57.372Z,25.90
2022-08-11T21:45:14.563Z,25.90
2022-08-11T21:50:31.261Z,25.80
2022-08-11T21:55:48.149Z,25.80
2022-08-11T22:01:05.416Z,25.70
2022-08-11T22:06:22.304Z,25.60
2022-08-11T22:11:39.290Z,25.50
2022-08-11T22:16:56.446Z,25.40
2022-08-11T22:22:13.524Z,25.40
2022-08-11T22:27:32.214Z,25.30
2022-08-11T22:32:49.187Z,25.30
2022-08-11T22:38:06.447Z,25.30
2022-08-11T22:43:23.117Z,25.20
2022-08-11T22:48:40.471Z,25.20
2022-08-11T22:53:58.952Z,25.20
2022-08-11T22:59:16.290Z,25.20
2022-08-11T23:04:33.362Z,25.10
2022-08-11T23:09:50.389Z,25.00
2022-08-11T23:15:07.371Z,24.80
2022-08-11T23:20:41.264Z,24.70
2022-08-11T23:25:43.231Z,24.60
2022-08-11T23:31:00.168Z,24.40
2022-08-11T23:36:36.253Z,24.30
2022-08-11T23:41:36.423Z,24.20
2022-08-11T23:46:53.358Z,24.20
2022-08-11T23:52:10.606Z,24.10
2022-08-11T23:57:27.511Z,24.10
